createdAt,value
2022-11-04T00:02:32.854Z,9.93103
2022-11-04T00:05:58.055Z,10.021667
2022-11-04T00:09:23.312Z,10.021667
2022-11-04T00:12:48.564Z,9.991455
2022-11-04T00:16:13.822Z,10.011597
2022-11-04T00:19:39.074Z,10.011597
2022-11-04T00:23:04.311Z,9.961243
2022-11-04T00:26:29.561Z,10.021667
2022-11-04T00:29:54.831Z,10.112305
2022-11-04T00:33:20.064Z,10.152588
2022-11-04T00:36:45.328Z,10.223083
2022-11-04T00:40:10.583Z,10.223083
2022-11-04T00:43:35.833Z,10.233154
2022-11-04T00:47:01.125Z,10.202942
2022-11-04T00:50:26.361Z,10.202942
2022-11-04T00:53:51.610Z,10.172729
2022-11-04T00:57:16.897Z,10.142517
2022-11-04T01:00:42.149Z,10.122375
2022-11-04T01:04:07.415Z,10.142517
2022-11-04T01:07:32.630Z,10.152588
2022-11-04T01:10:57.882Z,10.1828
2022-11-04T01:14:23.109Z,10.082092
2022-11-04T01:17:48.334Z,10.072021
2022-11-04T01:21:13.621Z,10.011597
2022-11-04T01:24:38.824Z,9.93103
2022-11-04T01:28:04.060Z,9.910889
2022-11-04T01:31:29.296Z,9.870605
2022-11-04T01:34:54.530Z,9.870605
2022-11-04T01:38:19.799Z,9.860535
2022-11-04T01:41:45.002Z,9.910889
2022-11-04T01:45:10.260Z,9.93103
2022-11-04T01:48:35.498Z,9.941101
2022-11-04T01:52:00.726Z,9.991455
2022-11-04T01:55:25.984Z,9.961243
2022-11-04T01:58:51.220Z,9.93103
2022-11-04T02:02:16.512Z,9.870605
2022-11-04T02:05:41.701Z,9.93103
2022-11-04T02:09:07.042Z,9.93103
2022-11-04T02:12:32.233Z,9.910889
2022-11-04T02:15:57.470Z,9.941101
2022-11-04T02:19:22.723Z,9.941101
2022-11-04T02:22:47.948Z,9.961243
2022-11-04T02:26:13.206Z,9.991455
2022-11-04T02:29:38.467Z,9.961243
2022-11-04T02:33:03.697Z,9.941101
2022-11-04T02:36:28.954Z,9.961243
2022-11-04T02:39:54.214Z,9.961243
2022-11-04T02:43:19.453Z,9.941101
2022-11-04T02:46:44.731Z,9.941101
2022-11-04T02:50:09.940Z,9.991455
2022-11-04T02:53:35.190Z,9.971313
2022-11-04T02:57:00.436Z,10.021667
2022-11-04T03:00:25.685Z,9.93103
2022-11-04T03:03:50.939Z,9.860535
2022-11-04T03:07:16.204Z,9.759827
2022-11-04T03:10:41.442Z,9.779968
2022-11-04T03:14:06.691Z,9.759827
2022-11-04T03:17:31.940Z,9.739685
2022-11-04T03:20:57.211Z,9.709473
2022-11-04T03:24:22.445Z,9.759827
2022-11-04T03:27:47.687Z,9.790039
2022-11-04T03:31:12.936Z,9.689331
2022-11-04T03:34:38.208Z,9.709473
2022-11-04T03:38:03.485Z,9.719543
2022-11-04T03:41:28.710Z,9.659119
2022-11-04T03:44:53.959Z,9.649048
2022-11-04T03:48:19.225Z,9.638977
2022-11-04T03:51:44.466Z,9.67926
2022-11-04T03:55:09.764Z,9.709473
2022-11-04T03:58:34.996Z,9.790039
2022-11-04T04:02:00.320Z,9.830322
2022-11-04T04:05:25.491Z,9.870605
2022-11-04T04:08:50.742Z,9.910889
2022-11-04T04:12:16.059Z,9.900818
2022-11-04T04:15:41.280Z,9.860535
2022-11-04T04:19:06.542Z,9.860535
2022-11-04T04:22:31.801Z,9.941101
2022-11-04T04:25:57.056Z,10.011597
2022-11-04T04:29:22.350Z,9.961243
2022-11-04T04:32:47.583Z,9.941101
2022-11-04T04:36:12.839Z,9.910889
2022-11-04T04:39:38.113Z,9.93103
2022-11-04T04:43:03.366Z,10.041809
2022-11-04T04:46:28.731Z,10.082092
2022-11-04T04:49:54.963Z,10.112305
2022-11-04T04:53:20.220Z,10.152588
2022-11-04T04:56:45.529Z,10.112305
2022-11-04T05:00:10.792Z,10.172729
2022-11-04T05:03:38.739Z,10.142517
2022-11-04T05:07:01.299Z,10.1828
2022-11-04T05:10:26.571Z,10.152588
2022-11-04T05:13:51.892Z,10.112305
2022-11-04T05:17:17.262Z,10.082092
2022-11-04T05:20:42.537Z,10.082092
2022-11-04T05:24:07.803Z,10.041809
2022-11-04T05:27:33.049Z,9.961243
2022-11-04T05:30:58.279Z,9.910889
2022-11-04T05:34:23.503Z,9.991455
2022-11-04T05:37:48.782Z,10.021667
2022-11-04T05:41:14.015Z,9.991455
2022-11-04T05:44:39.230Z,10.011597
2022-11-04T05:48:04.489Z,9.971313
2022-11-04T05:51:29.733Z,10.011597
2022-11-04T05:54:55.688Z,10.021667
2022-11-04T05:58:20.939Z,10.041809
2022-11-04T06:01:46.295Z,10.05188
2022-11-04T06:05:11.458Z,10.122375
2022-11-04T06:08:38.888Z,10.082092
2022-11-04T06:12:02.009Z,10.072021
2022-11-04T06:15:27.257Z,10.072021
2022-11-04T06:18:52.488Z,10.041809
2022-11-04T06:22:17.746Z,9.991455
2022-11-04T06:25:43.012Z,10.021667
2022-11-04T06:29:08.306Z,10.072021
2022-11-04T06:32:33.521Z,10.112305
2022-11-04T06:35:58.786Z,10.082092
2022-11-04T06:39:24.037Z,10.072021
2022-11-04T06:42:49.271Z,10.122375
2022-11-04T06:46:14.545Z,10.152588
2022-11-04T06:49:39.764Z,10.142517
2022-11-04T06:53:05.028Z,10.092163
2022-11-04T06:56:30.294Z,10.122375
2022-11-04T06:59:55.565Z,10.202942
2022-11-04T07:03:20.843Z,10.253296
2022-11-04T07:06:46.787Z,10.263367
2022-11-04T07:10:12.013Z,10.202942
2022-11-04T07:13:37.268Z,10.142517
2022-11-04T07:17:02.521Z,10.1828
2022-11-04T07:20:27.843Z,10.233154
2022-11-04T07:23:53.047Z,10.263367
2022-11-04T07:27:18.303Z,10.202942
2022-11-04T07:30:43.565Z,10.112305
2022-11-04T07:34:08.826Z,10.05188
2022-11-04T07:37:34.116Z,10.041809
2022-11-04T07:40:59.338Z,10.011597
2022-11-04T07:44:24.599Z,10.072021
2022-11-04T07:47:49.872Z,10.041809
2022-11-04T07:51:15.110Z,10.05188
2022-11-04T07:54:40.394Z,10.072021
2022-11-04T07:58:05.604Z,10.082092
2022-11-04T08:01:30.913Z,10.082092
2022-11-04T08:04:56.128Z,10.072021
2022-11-04T08:08:21.370Z,10.011597
2022-11-04T08:11:46.672Z,9.971313
2022-11-04T08:15:11.920Z,9.93103
2022-11-04T08:18:37.165Z,9.991455
2022-11-04T08:22:02.433Z,10.011597
2022-11-04T08:25:27.712Z,10.082092
2022-11-04T08:28:52.999Z,10.082092
2022-11-04T08:32:18.204Z,10.152588
2022-11-04T08:35:43.475Z,10.142517
2022-11-04T08:39:10.828Z,10.223083
2022-11-04T08:42:33.995Z,10.202942
2022-11-04T08:45:59.287Z,10.233154
2022-11-04T08:49:24.523Z,10.202942
2022-11-04T08:52:49.761Z,10.152588
2022-11-04T08:56:15.030Z,10.092163
2022-11-04T08:59:40.289Z,10.112305
2022-11-04T09:03:05.874Z,10.172729
2022-11-04T09:06:30.873Z,10.152588
2022-11-04T09:09:56.216Z,10.112305
2022-11-04T09:13:21.471Z,10.041809
2022-11-04T09:16:46.739Z,10.021667
2022-11-04T09:20:12.229Z,9.971313
2022-11-04T09:23:37.304Z,9.93103
2022-11-04T09:27:02.573Z,9.870605
2022-11-04T09:30:27.842Z,9.840393
2022-11-04T09:33:53.116Z,9.830322
2022-11-04T09:37:18.484Z,9.689331
2022-11-04T09:40:43.644Z,9.749756
2022-11-04T09:44:08.899Z,9.790039
2022-11-04T09:47:34.157Z,9.900818
2022-11-04T09:50:59.421Z,9.93103
2022-11-04T09:54:24.802Z,9.900818
2022-11-04T09:57:50.003Z,9.840393
2022-11-04T10:01:15.360Z,9.860535
2022-11-04T10:04:40.522Z,9.860535
2022-11-04T10:08:05.787Z,9.810181
2022-11-04T10:11:31.531Z,9.860535
2022-11-04T10:14:56.710Z,9.900818
2022-11-04T10:18:21.966Z,9.941101
2022-11-04T10:21:47.236Z,10.021667
2022-11-04T10:25:12.533Z,10.011597
2022-11-04T10:28:37.967Z,10.041809
2022-11-04T10:32:03.112Z,10.05188
2022-11-04T10:35:28.422Z,10.041809
2022-11-04T10:38:53.698Z,10.021667
2022-11-04T10:42:18.961Z,10.011597
2022-11-04T10:45:44.361Z,10.041809
2022-11-04T10:49:09.536Z,10.072021
2022-11-04T10:52:34.828Z,10.041809
2022-11-04T10:56:00.140Z,9.991455
2022-11-04T10:59:25.406Z,9.941101
2022-11-04T11:02:50.702Z,9.93103
2022-11-04T11:06:15.935Z,9.910889
2022-11-04T11:09:41.206Z,9.93103
2022-11-04T11:13:06.635Z,9.971313
2022-11-04T11:16:31.713Z,10.072021
2022-11-04T11:19:57.000Z,10.092163
2022-11-04T11:23:22.196Z,10.082092
2022-11-04T11:26:47.455Z,10.152588
2022-11-04T11:30:12.741Z,10.223083
2022-11-04T11:33:37.990Z,10.233154
2022-11-04T11:37:03.275Z,10.30365
2022-11-04T11:40:28.519Z,10.30365
2022-11-04T11:43:53.792Z,10.384216
2022-11-04T11:47:19.043Z,10.454712
2022-11-04T11:50:44.310Z,10.454712
2022-11-04T11:54:09.597Z,10.484924
2022-11-04T11:57:34.840Z,10.605774
2022-11-04T12:01:05.530Z,10.55542
2022-11-04T12:11:16.049Z,10.525208
2022-11-04T12:14:43.655Z,10.515137
2022-11-04T12:18:06.628Z,10.545349
2022-11-04T12:21:31.925Z,10.505066
2022-11-04T12:24:57.231Z,10.525208
2022-11-04T12:28:22.552Z,10.484924
2022-11-04T12:31:47.821Z,10.484924
2022-11-04T12:35:13.117Z,10.515137
2022-11-04T12:38:38.452Z,10.545349
2022-11-04T12:42:20.398Z,10.525208
2022-11-04T12:45:29.072Z,10.55542
2022-11-04T12:48:57.326Z,10.505066
2022-11-04T12:52:19.651Z,10.505066
2022-11-04T12:55:44.940Z,10.505066
2022-11-04T12:59:10.249Z,10.525208
2022-11-04T13:02:35.640Z,10.55542
2022-11-04T13:06:00.850Z,10.585632
2022-11-04T13:09:26.127Z,10.474854
2022-11-04T13:12:51.412Z,10.4245
2022-11-04T13:16:16.706Z,10.4245
2022-11-04T13:19:42.023Z,10.474854
2022-11-04T13:23:07.291Z,10.505066
2022-11-04T13:26:32.578Z,10.515137
2022-11-04T13:29:57.878Z,10.595703
2022-11-04T13:33:23.183Z,10.605774
2022-11-04T13:36:48.488Z,10.595703
2022-11-04T13:40:13.746Z,10.585632
2022-11-04T13:43:39.079Z,10.525208
2022-11-04T13:47:04.339Z,10.525208
2022-11-04T13:50:29.638Z,10.55542
2022-11-04T13:53:54.957Z,10.635986
2022-11-04T13:57:20.250Z,10.656128
2022-11-04T14:00:45.543Z,10.656128
2022-11-04T14:04:10.828Z,10.55542
2022-11-04T14:07:36.133Z,10.545349
2022-11-04T14:11:01.489Z,10.55542
2022-11-04T14:14:26.703Z,10.605774
2022-11-04T14:17:52.013Z,10.635986
2022-11-04T14:21:17.322Z,10.605774
2022-11-04T14:24:42.596Z,10.595703
2022-11-04T14:28:07.933Z,10.595703
2022-11-04T15:04:12.437Z,10.333862
2022-11-04T15:07:35.560Z,10.263367
2022-11-04T15:11:00.850Z,10.223083
2022-11-04T15:14:26.173Z,10.172729
2022-11-04T15:17:51.518Z,10.172729
2022-11-04T15:21:16.850Z,10.092163
2022-11-04T15:24:42.148Z,10.05188
2022-11-04T15:28:07.466Z,9.961243
2022-11-04T15:31:32.750Z,10.041809
2022-11-04T15:34:58.051Z,10.041809
2022-11-04T15:38:23.371Z,10.041809
2022-11-04T15:41:48.669Z,10.021667
2022-11-04T15:45:13.926Z,9.991455
2022-11-04T15:48:39.226Z,9.941101
2022-11-04T15:52:04.519Z,9.840393
2022-11-04T15:55:29.813Z,9.810181
2022-11-04T15:58:55.058Z,9.759827
2022-11-04T16:02:20.391Z,9.709473
2022-11-04T16:05:45.620Z,9.709473
2022-11-04T16:09:10.871Z,9.649048
2022-11-04T16:12:36.165Z,9.538269
2022-11-04T16:16:01.416Z,9.528198
2022-11-04T16:19:26.667Z,9.538269
2022-11-04T16:22:51.974Z,9.497986
2022-11-04T16:26:17.227Z,9.377136
2022-11-04T16:29:46.857Z,9.316711
2022-11-04T16:33:08.159Z,9.256287
2022-11-04T16:36:35.738Z,9.195862
2022-11-04T16:39:58.539Z,9.165649
2022-11-04T16:43:23.817Z,9.125366
2022-11-04T16:46:49.119Z,9.105225
2022-11-04T16:50:14.351Z,9.145508
2022-11-04T16:53:39.603Z,9.195862
2022-11-04T16:57:04.864Z,9.226074
2022-11-04T17:00:30.121Z,9.205933
2022-11-04T17:03:55.378Z,9.276428
2022-11-04T17:07:20.786Z,9.286499
2022-11-04T17:10:45.891Z,9.286499
2022-11-04T17:14:11.134Z,9.316711
2022-11-04T17:17:36.386Z,9.306641
2022-11-04T17:21:01.627Z,9.346924
2022-11-04T17:24:26.846Z,9.326782
2022-11-04T17:27:52.116Z,9.356995
2022-11-04T17:31:17.367Z,9.276428
2022-11-04T17:34:42.627Z,9.236145
2022-11-04T17:38:08.056Z,9.17572
2022-11-04T17:41:33.154Z,9.165649
2022-11-04T17:44:58.391Z,9.145508
2022-11-04T17:48:23.658Z,9.095154
2022-11-04T17:51:48.907Z,9.105225
2022-11-04T17:55:17.390Z,9.095154
2022-11-04T17:58:39.407Z,9.0448
2022-11-04T18:02:04.750Z,9.054871
2022-11-04T18:05:29.954Z,9.054871
2022-11-04T18:08:55.214Z,9.095154
2022-11-04T18:12:20.487Z,9.125366
2022-11-04T18:15:45.749Z,9.105225
2022-11-04T18:19:10.999Z,9.125366
2022-11-04T18:22:36.259Z,9.105225
2022-11-04T18:26:01.512Z,9.024658
2022-11-04T18:29:26.858Z,8.954163
2022-11-04T18:32:52.094Z,8.913879
2022-11-04T18:36:17.382Z,8.954163
2022-11-04T18:39:42.622Z,8.964233
2022-11-04T18:43:09.222Z,8.913879
2022-11-04T18:46:33.425Z,8.833313
2022-11-04T18:49:58.451Z,8.79303
2022-11-04T18:53:26.934Z,8.712463
2022-11-04T18:56:49.031Z,8.732605
2022-11-04T19:00:16.988Z,8.682251
2022-11-04T19:03:39.902Z,8.682251
2022-11-04T19:07:05.174Z,8.662109
2022-11-04T19:10:30.465Z,8.631897
2022-11-04T19:13:55.720Z,8.631897
2022-11-04T19:17:21.026Z,8.652039
2022-11-04T19:20:46.444Z,8.652039
2022-11-04T19:24:11.789Z,8.631897
2022-11-04T19:27:37.191Z,8.561401
2022-11-04T19:31:02.528Z,8.500977
2022-11-04T19:34:27.904Z,8.531189
2022-11-04T19:37:53.268Z,8.500977
2022-11-04T19:41:18.544Z,8.450623
2022-11-04T19:44:43.869Z,8.430481
2022-11-04T19:48:09.538Z,8.430481
2022-11-04T19:51:34.447Z,8.430481
2022-11-04T19:54:59.808Z,8.410339
2022-11-04T19:58:25.070Z,8.450623
2022-11-04T20:01:50.681Z,8.480835
2022-11-04T20:05:15.765Z,8.581543
2022-11-04T20:08:41.057Z,8.591614
2022-11-04T20:12:06.439Z,8.611755
2022-11-04T20:15:31.736Z,8.621826
2022-11-04T20:18:57.016Z,8.611755
2022-11-04T20:22:22.327Z,8.611755
2022-11-04T20:25:47.662Z,8.591614
2022-11-04T20:29:12.971Z,8.621826
2022-11-04T20:32:38.221Z,8.662109
2022-11-04T20:36:03.534Z,8.702393
2022-11-04T20:39:28.768Z,8.732605
2022-11-04T20:42:54.005Z,8.742676
2022-11-04T20:46:19.264Z,8.762817
2022-11-04T20:49:44.511Z,8.742676
2022-11-04T20:53:09.772Z,8.803101
2022-11-04T20:56:35.031Z,8.79303
2022-11-04T21:00:00.297Z,8.79303
2022-11-04T21:03:25.591Z,8.762817
2022-11-04T21:06:50.832Z,8.742676
2022-11-04T21:10:16.088Z,8.712463
2022-11-04T21:13:41.323Z,8.772888
2022-11-04T21:17:06.580Z,8.762817
2022-11-04T21:20:31.860Z,8.762817
2022-11-04T21:23:57.116Z,8.702393
2022-11-04T21:27:22.403Z,8.702393
2022-11-04T21:30:47.658Z,8.712463
2022-11-04T21:34:12.910Z,8.682251
2022-11-04T21:37:38.197Z,8.631897
2022-11-04T21:41:03.432Z,8.591614
2022-11-04T21:44:28.686Z,8.551331
2022-11-04T21:47:53.919Z,8.500977
2022-11-04T21:51:19.198Z,8.531189
2022-11-04T21:54:44.553Z,8.531189
2022-11-04T21:58:09.901Z,8.500977
2022-11-04T22:01:35.086Z,8.430481
2022-11-04T22:05:00.183Z,8.380127
2022-11-04T22:08:25.449Z,8.359985
2022-11-04T22:11:50.754Z,8.410339
2022-11-04T22:15:15.977Z,8.500977
2022-11-04T22:18:41.251Z,8.521118
2022-11-04T22:22:06.512Z,8.561401
2022-11-04T22:25:31.823Z,8.561401
2022-11-04T22:28:57.071Z,8.561401
2022-11-04T22:32:22.304Z,8.500977
2022-11-04T22:35:47.563Z,8.380127
2022-11-04T22:39:16.305Z,8.370056
2022-11-04T22:42:38.092Z,8.299561
2022-11-04T22:46:03.368Z,8.28949
2022-11-04T22:49:28.628Z,8.249207
2022-11-04T22:52:53.885Z,8.249207
2022-11-04T22:56:19.852Z,8.229065
2022-11-04T22:59:45.118Z,8.249207
2022-11-04T23:03:11.011Z,8.249207
2022-11-04T23:06:35.667Z,8.249207
2022-11-04T23:10:00.917Z,8.249207
2022-11-04T23:13:26.168Z,8.28949
2022-11-04T23:16:51.402Z,8.279419
2022-11-04T23:20:16.787Z,8.339844
2022-11-04T23:23:41.938Z,8.380127
2022-11-04T23:27:07.209Z,8.410339
2022-11-04T23:30:32.473Z,8.400269
2022-11-04T23:33:57.732Z,8.440552
2022-11-04T23:37:22.999Z,8.500977
2022-11-04T23:40:48.239Z,8.521118
2022-11-04T23:44:13.490Z,8.531189
2022-11-04T23:47:38.737Z,8.591614
2022-11-04T23:51:04.002Z,8.611755
2022-11-04T23:54:29.275Z,8.631897
2022-11-04T23:57:54.502Z,8.682251
